sensor_id;sensor_type;location;lat;lon;timestamp;pressure;altitude;pressure_sealevel;temperature;humidity
21728;BME280;11026;50.560;17.852;2023-07-16T00:01:41;99094.25;;;23.85;71.19
21728;BME280;11026;50.560;17.852;2023-07-16T00:04:09;99100.28;;;23.78;71.14
21728;BME280;11026;50.560;17.852;2023-07-16T00:06:37;99096.25;;;23.83;71.17
21728;BME280;11026;50.560;17.852;2023-07-16T00:09:04;99101.13;;;23.79;71.09
21728;BME280;11026;50.560;17.852;2023-07-16T00:11:32;99094.19;;;23.68;71.71
21728;BME280;11026;50.560;17.852;2023-07-16T00:13:59;99088.84;;;23.59;72.38
21728;BME280;11026;50.560;17.852;2023-07-16T00:16:29;99082.56;;;23.50;73.20
21728;BME280;11026;50.560;17.852;2023-07-16T00:18:56;99082.22;;;23.45;73.45
21728;BME280;11026;50.560;17.852;2023-07-16T00:21:24;99083.38;;;23.42;73.70
21728;BME280;11026;50.560;17.852;2023-07-16T00:23:52;99080.75;;;23.24;74.90
21728;BME280;11026;50.560;17.852;2023-07-16T00:26:19;99079.25;;;23.30;74.64
21728;BME280;11026;50.560;17.852;2023-07-16T00:28:47;99076.72;;;23.28;74.50
21728;BME280;11026;50.560;17.852;2023-07-16T00:31:14;99071.97;;;23.22;75.43
21728;BME280;11026;50.560;17.852;2023-07-16T00:33:43;99069.88;;;23.16;76.09
21728;BME280;11026;50.560;17.852;2023-07-16T00:36:10;99061.78;;;23.16;75.99
21728;BME280;11026;50.560;17.852;2023-07-16T00:38:44;99063.28;;;23.11;76.27
21728;BME280;11026;50.560;17.852;2023-07-16T00:41:13;99056.72;;;23.13;75.86
21728;BME280;11026;50.560;17.852;2023-07-16T00:43:47;99059.56;;;23.12;76.50
21728;BME280;11026;50.560;17.852;2023-07-16T00:46:16;99054.19;;;23.12;76.48
21728;BME280;11026;50.560;17.852;2023-07-16T00:48:45;99057.03;;;23.10;76.45
21728;BME280;11026;50.560;17.852;2023-07-16T00:51:15;99047.28;;;23.09;76.79
21728;BME280;11026;50.560;17.852;2023-07-16T00:53:43;99051.44;;;23.03;77.14
21728;BME280;11026;50.560;17.852;2023-07-16T00:56:16;99054.59;;;22.99;77.45
21728;BME280;11026;50.560;17.852;2023-07-16T00:58:45;99058.63;;;22.95;78.02
21728;BME280;11026;50.560;17.852;2023-07-16T01:01:12;99064.78;;;22.87;78.07
21728;BME280;11026;50.560;17.852;2023-07-16T01:03:40;99058.53;;;22.87;78.50
21728;BME280;11026;50.560;17.852;2023-07-16T01:08:47;99063.75;;;22.88;78.74
21728;BME280;11026;50.560;17.852;2023-07-16T01:11:28;99067.78;;;22.84;79.87
21728;BME280;11026;50.560;17.852;2023-07-16T01:13:57;99061.16;;;22.78;79.48
21728;BME280;11026;50.560;17.852;2023-07-16T01:16:31;99056.44;;;22.80;79.69
21728;BME280;11026;50.560;17.852;2023-07-16T01:19:00;99056.09;;;22.75;80.15
21728;BME280;11026;50.560;17.852;2023-07-16T01:21:40;99055.41;;;22.73;80.29
21728;BME280;11026;50.560;17.852;2023-07-16T01:24:47;99055.78;;;22.78;80.27
21728;BME280;11026;50.560;17.852;2023-07-16T01:27:50;99046.31;;;22.74;80.83
21728;BME280;11026;50.560;17.852;2023-07-16T01:30:23;99053.03;;;22.70;80.67
21728;BME280;11026;50.560;17.852;2023-07-16T01:32:55;99052.97;;;22.62;80.93
21728;BME280;11026;50.560;17.852;2023-07-16T01:35:24;99046.19;;;22.58;81.24
21728;BME280;11026;50.560;17.852;2023-07-16T01:37:52;99056.44;;;22.54;81.32
21728;BME280;11026;50.560;17.852;2023-07-16T01:40:19;99062.50;;;22.56;81.47
21728;BME280;11026;50.560;17.852;2023-07-16T01:42:47;99064.28;;;22.48;81.98
21728;BME280;11026;50.560;17.852;2023-07-16T01:45:14;99062.75;;;22.45;81.97
21728;BME280;11026;50.560;17.852;2023-07-16T01:50:31;99072.06;;;22.51;82.35
21728;BME280;11026;50.560;17.852;2023-07-16T01:52:59;99068.34;;;22.52;82.57
21728;BME280;11026;50.560;17.852;2023-07-16T01:55:27;99063.59;;;22.46;82.82
21728;BME280;11026;50.560;17.852;2023-07-16T01:57:54;99057.97;;;22.39;83.13
21728;BME280;11026;50.560;17.852;2023-07-16T02:00:22;99061.75;;;22.46;83.48
21728;BME280;11026;50.560;17.852;2023-07-16T02:02:49;99059.97;;;22.37;83.49
21728;BME280;11026;50.560;17.852;2023-07-16T02:05:16;99053.81;;;22.45;83.51
21728;BME280;11026;50.560;17.852;2023-07-16T02:07:43;99052.97;;;22.26;84.49
21728;BME280;11026;50.560;17.852;2023-07-16T02:10:12;99054.34;;;22.30;84.71
21728;BME280;11026;50.560;17.852;2023-07-16T02:12:39;99047.88;;;22.23;85.02
21728;BME280;11026;50.560;17.852;2023-07-16T02:15:07;99053.88;;;22.17;85.86
21728;BME280;11026;50.560;17.852;2023-07-16T02:17:34;99059.31;;;22.07;86.00
21728;BME280;11026;50.560;17.852;2023-07-16T02:20:02;99047.41;;;22.10;86.28
21728;BME280;11026;50.560;17.852;2023-07-16T02:22:34;99062.16;;;22.06;86.54
21728;BME280;11026;50.560;17.852;2023-07-16T02:25:03;99050.00;;;22.02;86.75
21728;BME280;11026;50.560;17.852;2023-07-16T02:27:31;99049.91;;;21.94;87.26
21728;BME280;11026;50.560;17.852;2023-07-16T02:29:58;99040.75;;;21.87;88.22
21728;BME280;11026;50.560;17.852;2023-07-16T02:32:26;99035.09;;;21.80;88.59
21728;BME280;11026;50.560;17.852;2023-07-16T02:34:53;99043.03;;;21.81;89.39
21728;BME280;11026;50.560;17.852;2023-07-16T02:37:21;99041.63;;;21.77;89.50
21728;BME280;11026;50.560;17.852;2023-07-16T02:39:48;99050.41;;;21.79;89.80
21728;BME280;11026;50.560;17.852;2023-07-16T02:42:15;99047.56;;;21.81;89.79
21728;BME280;11026;50.560;17.852;2023-07-16T02:44:43;99045.94;;;21.70;90.64
21728;BME280;11026;50.560;17.852;2023-07-16T02:47:11;99056.81;;;21.78;90.95
21728;BME280;11026;50.560;17.852;2023-07-16T02:49:39;99046.03;;;21.78;91.01
21728;BME280;11026;50.560;17.852;2023-07-16T02:52:07;99053.94;;;21.80;91.29
21728;BME280;11026;50.560;17.852;2023-07-16T02:54:37;99048.41;;;21.81;91.16
21728;BME280;11026;50.560;17.852;2023-07-16T02:57:06;99044.03;;;21.80;91.36
21728;BME280;11026;50.560;17.852;2023-07-16T02:59:33;99045.41;;;21.84;91.31
21728;BME280;11026;50.560;17.852;2023-07-16T03:02:01;99040.34;;;21.81;91.22
21728;BME280;11026;50.560;17.852;2023-07-16T03:04:28;99033.66;;;21.85;90.73
21728;BME280;11026;50.560;17.852;2023-07-16T03:06:55;99038.91;;;21.87;90.95
21728;BME280;11026;50.560;17.852;2023-07-16T03:09:23;99040.75;;;21.87;90.73
21728;BME280;11026;50.560;17.852;2023-07-16T03:11:50;99043.44;;;21.87;90.99
21728;BME280;11026;50.560;17.852;2023-07-16T03:14:17;99046.81;;;21.89;90.84
21728;BME280;11026;50.560;17.852;2023-07-16T03:16:45;99049.13;;;21.83;91.28
21728;BME280;11026;50.560;17.852;2023-07-16T03:19:14;99044.50;;;21.76;91.46
21728;BME280;11026;50.560;17.852;2023-07-16T03:21:42;99036.56;;;21.74;91.89
21728;BME280;11026;50.560;17.852;2023-07-16T03:24:10;99033.47;;;21.69;92.49
21728;BME280;11026;50.560;17.852;2023-07-16T03:26:38;99040.25;;;21.73;92.19
21728;BME280;11026;50.560;17.852;2023-07-16T03:29:06;99045.25;;;21.68;93.05
21728;BME280;11026;50.560;17.852;2023-07-16T03:31:40;99055.00;;;21.69;92.89
21728;BME280;11026;50.560;17.852;2023-07-16T03:34:07;99049.94;;;21.66;93.12
21728;BME280;11026;50.560;17.852;2023-07-16T03:36:36;99057.00;;;21.67;93.52
21728;BME280;11026;50.560;17.852;2023-07-16T03:39:03;99055.00;;;21.69;93.39
21728;BME280;11026;50.560;17.852;2023-07-16T03:41:32;99058.78;;;21.76;93.14
21728;BME280;11026;50.560;17.852;2023-07-16T03:43:59;99072.97;;;21.78;93.06
21728;BME280;11026;50.560;17.852;2023-07-16T03:46:28;99068.56;;;21.77;93.34
21728;BME280;11026;50.560;17.852;2023-07-16T03:48:55;99074.09;;;21.76;93.67
21728;BME280;11026;50.560;17.852;2023-07-16T03:51:23;99082.00;;;21.77;93.65
21728;BME280;11026;50.560;17.852;2023-07-16T03:53:50;99091.47;;;21.81;93.51
21728;BME280;11026;50.560;17.852;2023-07-16T03:56:18;99088.78;;;21.81;94.05
21728;BME280;11026;50.560;17.852;2023-07-16T03:58:47;99090.91;;;21.88;93.83
21728;BME280;11026;50.560;17.852;2023-07-16T04:01:15;99088.59;;;21.93;93.77
21728;BME280;11026;50.560;17.852;2023-07-16T04:03:42;99098.03;;;22.06;93.47
21728;BME280;11026;50.560;17.852;2023-07-16T04:06:10;99102.94;;;22.11;93.13
21728;BME280;11026;50.560;17.852;2023-07-16T04:08:39;99111.44;;;22.16;92.85
21728;BME280;11026;50.560;17.852;2023-07-16T04:11:07;99110.00;;;22.22;92.43
21728;BME280;11026;50.560;17.852;2023-07-16T04:13:34;99106.22;;;22.32;92.14
21728;BME280;11026;50.560;17.852;2023-07-16T04:16:03;99113.78;;;22.47;92.13
21728;BME280;11026;50.560;17.852;2023-07-16T04:18:31;99114.88;;;22.54;90.90
21728;BME280;11026;50.560;17.852;2023-07-16T04:20:59;99115.44;;;22.57;90.19
21728;BME280;11026;50.560;17.852;2023-07-16T04:23:32;99131.81;;;22.64;90.45
21728;BME280;11026;50.560;17.852;2023-07-16T04:26:02;99124.25;;;22.68;90.62
21728;BME280;11026;50.560;17.852;2023-07-16T04:28:29;99125.16;;;22.76;89.74
21728;BME280;11026;50.560;17.852;2023-07-16T04:30:57;99134.66;;;22.80;89.39
21728;BME280;11026;50.560;17.852;2023-07-16T04:33:24;99132.75;;;22.91;89.02
21728;BME280;11026;50.560;17.852;2023-07-16T04:35:52;99143.59;;;22.99;89.07
21728;BME280;11026;50.560;17.852;2023-07-16T04:38:19;99134.56;;;23.08;88.75
21728;BME280;11026;50.560;17.852;2023-07-16T04:40:47;99138.19;;;23.17;88.03
21728;BME280;11026;50.560;17.852;2023-07-16T04:43:14;99148.56;;;23.29;86.98
21728;BME280;11026;50.560;17.852;2023-07-16T04:45:44;99167.28;;;23.31;87.91
21728;BME280;11026;50.560;17.852;2023-07-16T04:48:14;99170.63;;;23.51;86.71
21728;BME280;11026;50.560;17.852;2023-07-16T04:50:41;99188.75;;;23.59;85.25
21728;BME280;11026;50.560;17.852;2023-07-16T04:53:09;99210.94;;;23.70;84.65
21728;BME280;11026;50.560;17.852;2023-07-16T04:55:37;99232.88;;;23.67;85.52
21728;BME280;11026;50.560;17.852;2023-07-16T04:58:05;99260.03;;;23.66;85.58
21728;BME280;11026;50.560;17.852;2023-07-16T05:00:35;99269.25;;;23.81;85.65
21728;BME280;11026;50.560;17.852;2023-07-16T05:03:02;99273.16;;;24.13;84.97
21728;BME280;11026;50.560;17.852;2023-07-16T05:05:29;99278.63;;;24.21;83.85
21728;BME280;11026;50.560;17.852;2023-07-16T05:07:58;99273.00;;;24.40;82.60
21728;BME280;11026;50.560;17.852;2023-07-16T05:10:29;99275.06;;;24.54;81.59
21728;BME280;11026;50.560;17.852;2023-07-16T05:12:57;99292.53;;;24.68;81.53
21728;BME280;11026;50.560;17.852;2023-07-16T05:15:26;99325.38;;;24.82;80.77
21728;BME280;11026;50.560;17.852;2023-07-16T05:17:53;99358.59;;;25.00;79.54
21728;BME280;11026;50.560;17.852;2023-07-16T05:20:23;99334.13;;;25.10;77.53
21728;BME280;11026;50.560;17.852;2023-07-16T05:22:50;99338.38;;;25.20;77.11
21728;BME280;11026;50.560;17.852;2023-07-16T05:25:18;99341.41;;;25.17;78.17
21728;BME280;11026;50.560;17.852;2023-07-16T05:27:45;99348.91;;;25.32;77.82
21728;BME280;11026;50.560;17.852;2023-07-16T05:30:19;99343.66;;;25.38;77.04
21728;BME280;11026;50.560;17.852;2023-07-16T05:32:47;99338.91;;;25.32;77.70
21728;BME280;11026;50.560;17.852;2023-07-16T05:35:15;99329.31;;;25.62;77.56
21728;BME280;11026;50.560;17.852;2023-07-16T05:37:43;99341.81;;;25.71;77.08
21728;BME280;11026;50.560;17.852;2023-07-16T05:40:11;99343.84;;;25.69;76.80
21728;BME280;11026;50.560;17.852;2023-07-16T05:42:38;99350.78;;;25.56;76.42
21728;BME280;11026;50.560;17.852;2023-07-16T05:45:06;99357.78;;;25.83;76.36
21728;BME280;11026;50.560;17.852;2023-07-16T05:47:39;99354.38;;;25.89;74.40
21728;BME280;11026;50.560;17.852;2023-07-16T05:50:06;99362.66;;;26.12;73.93
21728;BME280;11026;50.560;17.852;2023-07-16T05:52:36;99361.47;;;26.22;73.36
21728;BME280;11026;50.560;17.852;2023-07-16T05:55:05;99370.94;;;26.35;72.43
21728;BME280;11026;50.560;17.852;2023-07-16T05:57:32;99364.31;;;26.37;69.42
21728;BME280;11026;50.560;17.852;2023-07-16T06:00:01;99373.31;;;26.46;68.40
21728;BME280;11026;50.560;17.852;2023-07-16T06:02:29;99377.50;;;26.40;68.81
21728;BME280;11026;50.560;17.852;2023-07-16T06:04:58;99370.72;;;26.53;67.44
21728;BME280;11026;50.560;17.852;2023-07-16T06:07:26;99375.31;;;26.52;68.06
21728;BME280;11026;50.560;17.852;2023-07-16T06:09:53;99383.81;;;26.57;66.97
21728;BME280;11026;50.560;17.852;2023-07-16T06:12:21;99378.94;;;26.84;66.37
21728;BME280;11026;50.560;17.852;2023-07-16T06:14:49;99383.44;;;27.00;64.90
21728;BME280;11026;50.560;17.852;2023-07-16T06:17:22;99382.56;;;27.07;62.87
21728;BME280;11026;50.560;17.852;2023-07-16T06:19:55;99375.44;;;27.14;62.60
21728;BME280;11026;50.560;17.852;2023-07-16T06:22:25;99379.31;;;27.20;61.61
21728;BME280;11026;50.560;17.852;2023-07-16T06:24:58;99392.50;;;27.31;62.98
21728;BME280;11026;50.560;17.852;2023-07-16T06:27:27;99403.78;;;27.43;61.09
21728;BME280;11026;50.560;17.852;2023-07-16T06:29:55;99405.06;;;27.55;60.35
21728;BME280;11026;50.560;17.852;2023-07-16T06:32:22;99402.66;;;27.37;59.45
21728;BME280;11026;50.560;17.852;2023-07-16T06:34:51;99407.13;;;27.53;59.14
21728;BME280;11026;50.560;17.852;2023-07-16T06:37:18;99407.44;;;27.58;58.41
21728;BME280;11026;50.560;17.852;2023-07-16T06:39:46;99415.63;;;27.50;57.99
21728;BME280;11026;50.560;17.852;2023-07-16T06:42:14;99409.84;;;27.53;57.47
21728;BME280;11026;50.560;17.852;2023-07-16T06:44:41;99418.34;;;27.50;56.65
21728;BME280;11026;50.560;17.852;2023-07-16T06:47:09;99428.25;;;27.43;57.28
21728;BME280;11026;50.560;17.852;2023-07-16T06:49:36;99429.13;;;27.35;57.50
21728;BME280;11026;50.560;17.852;2023-07-16T06:52:04;99428.91;;;27.45;58.35
21728;BME280;11026;50.560;17.852;2023-07-16T06:54:32;99431.53;;;27.61;57.72
21728;BME280;11026;50.560;17.852;2023-07-16T06:57:00;99426.88;;;27.70;57.03
21728;BME280;11026;50.560;17.852;2023-07-16T06:59:28;99429.56;;;27.78;56.11
21728;BME280;11026;50.560;17.852;2023-07-16T07:01:55;99428.97;;;27.91;57.09
21728;BME280;11026;50.560;17.852;2023-07-16T07:04:23;99435.66;;;28.03;58.40
21728;BME280;11026;50.560;17.852;2023-07-16T07:06:50;99431.81;;;28.21;57.62
21728;BME280;11026;50.560;17.852;2023-07-16T07:09:18;99425.25;;;28.30;58.02
21728;BME280;11026;50.560;17.852;2023-07-16T07:11:45;99435.03;;;28.39;56.73
21728;BME280;11026;50.560;17.852;2023-07-16T07:14:14;99434.69;;;28.42;54.83
21728;BME280;11026;50.560;17.852;2023-07-16T07:16:41;99441.44;;;28.46;54.32
21728;BME280;11026;50.560;17.852;2023-07-16T07:19:09;99436.47;;;28.50;54.51
21728;BME280;11026;50.560;17.852;2023-07-16T07:21:39;99436.78;;;28.70;56.08
21728;BME280;11026;50.560;17.852;2023-07-16T07:24:07;99438.47;;;28.71;55.38
21728;BME280;11026;50.560;17.852;2023-07-16T07:26:37;99443.75;;;28.87;55.27
21728;BME280;11026;50.560;17.852;2023-07-16T07:29:05;99444.22;;;29.05;53.79
21728;BME280;11026;50.560;17.852;2023-07-16T07:31:33;99447.31;;;29.32;53.43
21728;BME280;11026;50.560;17.852;2023-07-16T07:34:00;99441.25;;;29.51;52.57
21728;BME280;11026;50.560;17.852;2023-07-16T07:36:28;99438.25;;;29.61;50.40
21728;BME280;11026;50.560;17.852;2023-07-16T07:38:55;99435.44;;;29.54;50.09
21728;BME280;11026;50.560;17.852;2023-07-16T07:41:23;99434.91;;;29.29;50.59
21728;BME280;11026;50.560;17.852;2023-07-16T07:43:50;99440.19;;;29.31;50.58
21728;BME280;11026;50.560;17.852;2023-07-16T07:46:18;99443.72;;;29.46;51.00
21728;BME280;11026;50.560;17.852;2023-07-16T07:48:46;99447.09;;;29.48;50.22
21728;BME280;11026;50.560;17.852;2023-07-16T07:51:13;99448.34;;;29.82;52.11
21728;BME280;11026;50.560;17.852;2023-07-16T07:53:41;99448.59;;;30.08;50.48
21728;BME280;11026;50.560;17.852;2023-07-16T07:56:09;99443.13;;;30.08;50.34
21728;BME280;11026;50.560;17.852;2023-07-16T07:58:36;99451.44;;;30.00;49.33
21728;BME280;11026;50.560;17.852;2023-07-16T08:01:05;99446.78;;;29.94;49.53
21728;BME280;11026;50.560;17.852;2023-07-16T08:03:34;99443.94;;;30.02;49.73
21728;BME280;11026;50.560;17.852;2023-07-16T08:06:02;99450.53;;;29.93;49.12
21728;BME280;11026;50.560;17.852;2023-07-16T08:08:29;99448.84;;;29.92;49.67
21728;BME280;11026;50.560;17.852;2023-07-16T08:10:57;99456.84;;;29.94;49.22
21728;BME280;11026;50.560;17.852;2023-07-16T08:13:25;99458.59;;;29.80;50.29
21728;BME280;11026;50.560;17.852;2023-07-16T08:15:55;99457.66;;;29.73;49.22
21728;BME280;11026;50.560;17.852;2023-07-16T08:18:23;99455.63;;;29.60;49.32
21728;BME280;11026;50.560;17.852;2023-07-16T08:20:50;99467.13;;;29.40;50.08
21728;BME280;11026;50.560;17.852;2023-07-16T08:23:18;99469.47;;;29.29;50.12
21728;BME280;11026;50.560;17.852;2023-07-16T08:25:49;99461.97;;;29.31;51.58
21728;BME280;11026;50.560;17.852;2023-07-16T08:28:17;99460.72;;;29.33;51.65
21728;BME280;11026;50.560;17.852;2023-07-16T08:30:48;99464.75;;;29.52;50.86
21728;BME280;11026;50.560;17.852;2023-07-16T08:33:15;99455.03;;;29.79;51.84
21728;BME280;11026;50.560;17.852;2023-07-16T08:35:44;99450.28;;;29.88;49.24
21728;BME280;11026;50.560;17.852;2023-07-16T08:38:11;99453.38;;;29.85;49.52
21728;BME280;11026;50.560;17.852;2023-07-16T08:40:39;99465.72;;;29.81;49.43
21728;BME280;11026;50.560;17.852;2023-07-16T08:43:07;99471.47;;;29.86;49.19
21728;BME280;11026;50.560;17.852;2023-07-16T08:45:39;99474.81;;;29.88;48.42
21728;BME280;11026;50.560;17.852;2023-07-16T08:48:12;99481.81;;;29.76;48.47
21728;BME280;11026;50.560;17.852;2023-07-16T08:50:41;99490.00;;;29.76;48.49
21728;BME280;11026;50.560;17.852;2023-07-16T08:53:09;99486.09;;;29.85;48.08
21728;BME280;11026;50.560;17.852;2023-07-16T08:55:37;99485.69;;;30.03;49.06
21728;BME280;11026;50.560;17.852;2023-07-16T08:58:05;99487.44;;;30.32;47.80
21728;BME280;11026;50.560;17.852;2023-07-16T09:00:33;99481.31;;;30.51;46.91
21728;BME280;11026;50.560;17.852;2023-07-16T09:03:01;99482.78;;;30.75;47.30
21728;BME280;11026;50.560;17.852;2023-07-16T09:05:29;99481.69;;;30.70;45.59
21728;BME280;11026;50.560;17.852;2023-07-16T09:08:06;99481.72;;;30.48;46.38
21728;BME280;11026;50.560;17.852;2023-07-16T09:10:34;99484.91;;;30.73;46.86
21728;BME280;11026;50.560;17.852;2023-07-16T09:13:01;99481.94;;;30.75;47.30
21728;BME280;11026;50.560;17.852;2023-07-16T09:15:29;99483.63;;;30.76;46.90
21728;BME280;11026;50.560;17.852;2023-07-16T09:17:57;99477.00;;;30.85;46.51
21728;BME280;11026;50.560;17.852;2023-07-16T09:20:26;99479.00;;;30.76;45.80
21728;BME280;11026;50.560;17.852;2023-07-16T09:22:58;99466.16;;;30.98;47.47
21728;BME280;11026;50.560;17.852;2023-07-16T09:25:29;99473.41;;;31.19;47.19
21728;BME280;11026;50.560;17.852;2023-07-16T09:28:00;99463.88;;;31.37;47.00
21728;BME280;11026;50.560;17.852;2023-07-16T09:30:32;99467.06;;;31.53;47.32
21728;BME280;11026;50.560;17.852;2023-07-16T09:33:17;99467.78;;;31.82;44.49
21728;BME280;11026;50.560;17.852;2023-07-16T09:35:48;99472.41;;;31.81;45.96
21728;BME280;11026;50.560;17.852;2023-07-16T09:38:17;99465.31;;;31.94;44.92
21728;BME280;11026;50.560;17.852;2023-07-16T09:40:58;99476.72;;;32.17;45.82
21728;BME280;11026;50.560;17.852;2023-07-16T09:43:26;99464.09;;;32.63;44.85
21728;BME280;11026;50.560;17.852;2023-07-16T09:45:53;99466.63;;;32.97;42.74
21728;BME280;11026;50.560;17.852;2023-07-16T09:48:22;99459.56;;;33.28;42.07
21728;BME280;11026;50.560;17.852;2023-07-16T09:50:53;99456.28;;;33.58;43.51
21728;BME280;11026;50.560;17.852;2023-07-16T09:53:21;99468.50;;;33.62;42.68
21728;BME280;11026;50.560;17.852;2023-07-16T09:56:04;99465.06;;;33.28;42.08
21728;BME280;11026;50.560;17.852;2023-07-16T09:58:32;99453.25;;;33.27;43.53
21728;BME280;11026;50.560;17.852;2023-07-16T10:01:01;99452.34;;;33.40;43.32
21728;BME280;11026;50.560;17.852;2023-07-16T10:03:30;99457.19;;;33.51;42.31
21728;BME280;11026;50.560;17.852;2023-07-16T10:06:07;99462.66;;;33.51;43.15
21728;BME280;11026;50.560;17.852;2023-07-16T10:08:36;99456.34;;;33.51;41.18
21728;BME280;11026;50.560;17.852;2023-07-16T10:11:15;99453.38;;;33.52;41.15
21728;BME280;11026;50.560;17.852;2023-07-16T10:13:53;99451.19;;;33.68;42.55
21728;BME280;11026;50.560;17.852;2023-07-16T10:16:22;99450.34;;;33.74;42.38
21728;BME280;11026;50.560;17.852;2023-07-16T10:18:51;99440.47;;;33.60;42.14
21728;BME280;11026;50.560;17.852;2023-07-16T10:21:25;99445.09;;;33.66;41.94
21728;BME280;11026;50.560;17.852;2023-07-16T10:23:59;99451.97;;;33.82;41.97
21728;BME280;11026;50.560;17.852;2023-07-16T10:26:28;99445.75;;;33.99;40.45
21728;BME280;11026;50.560;17.852;2023-07-16T10:28:56;99449.94;;;33.64;41.21
21728;BME280;11026;50.560;17.852;2023-07-16T10:31:25;99436.53;;;33.42;40.72
21728;BME280;11026;50.560;17.852;2023-07-16T10:33:59;99436.50;;;33.56;42.00
21728;BME280;11026;50.560;17.852;2023-07-16T10:36:27;99426.63;;;33.86;41.44
21728;BME280;11026;50.560;17.852;2023-07-16T10:38:54;99415.97;;;33.20;40.92
21728;BME280;11026;50.560;17.852;2023-07-16T10:41:22;99416.25;;;32.98;41.81
21728;BME280;11026;50.560;17.852;2023-07-16T10:43:55;99409.50;;;33.52;41.47
21728;BME280;11026;50.560;17.852;2023-07-16T10:46:30;99397.19;;;33.68;42.35
21728;BME280;11026;50.560;17.852;2023-07-16T10:48:59;99412.53;;;32.46;43.91
21728;BME280;11026;50.560;17.852;2023-07-16T10:51:28;99400.53;;;32.21;44.73
21728;BME280;11026;50.560;17.852;2023-07-16T10:53:58;99390.34;;;32.74;44.20
21728;BME280;11026;50.560;17.852;2023-07-16T10:56:25;99378.53;;;33.45;43.74
21728;BME280;11026;50.560;17.852;2023-07-16T10:58:53;99375.28;;;33.62;42.18
21728;BME280;11026;50.560;17.852;2023-07-16T11:01:21;99379.88;;;32.65;42.47
21728;BME280;11026;50.560;17.852;2023-07-16T11:03:48;99376.22;;;32.97;44.19
21728;BME280;11026;50.560;17.852;2023-07-16T11:06:18;99389.06;;;32.90;42.10
21728;BME280;11026;50.560;17.852;2023-07-16T11:08:48;99389.38;;;33.65;42.09
21728;BME280;11026;50.560;17.852;2023-07-16T11:11:28;99388.69;;;34.33;40.30
21728;BME280;11026;50.560;17.852;2023-07-16T11:14:06;99398.72;;;35.08;38.78
21728;BME280;11026;50.560;17.852;2023-07-16T11:16:38;99392.22;;;35.69;40.09
21728;BME280;11026;50.560;17.852;2023-07-16T11:19:07;99398.69;;;35.44;38.78
21728;BME280;11026;50.560;17.852;2023-07-16T11:21:37;99394.50;;;35.23;39.68
21728;BME280;11026;50.560;17.852;2023-07-16T11:24:12;99388.69;;;35.80;39.34
21728;BME280;11026;50.560;17.852;2023-07-16T11:26:40;99394.81;;;35.52;39.47
21728;BME280;11026;50.560;17.852;2023-07-16T11:29:19;99392.44;;;35.19;38.77
21728;BME280;11026;50.560;17.852;2023-07-16T11:31:52;99399.47;;;34.78;40.16
21728;BME280;11026;50.560;17.852;2023-07-16T11:34:20;99392.59;;;34.69;40.14
21728;BME280;11026;50.560;17.852;2023-07-16T11:36:49;99397.56;;;34.79;39.47
21728;BME280;11026;50.560;17.852;2023-07-16T11:39:17;99400.25;;;35.22;40.17
21728;BME280;11026;50.560;17.852;2023-07-16T11:41:57;99407.16;;;34.44;39.36
21728;BME280;11026;50.560;17.852;2023-07-16T11:44:34;99407.22;;;34.13;39.46
21728;BME280;11026;50.560;17.852;2023-07-16T11:47:04;99401.28;;;34.41;39.35
21728;BME280;11026;50.560;17.852;2023-07-16T11:49:31;99406.94;;;34.71;39.84
21728;BME280;11026;50.560;17.852;2023-07-16T11:51:59;99405.66;;;34.73;39.41
21728;BME280;11026;50.560;17.852;2023-07-16T11:54:26;99397.84;;;35.74;40.34
21728;BME280;11026;50.560;17.852;2023-07-16T11:56:54;99395.97;;;36.75;38.42
21728;BME280;11026;50.560;17.852;2023-07-16T11:59:21;99398.56;;;37.05;36.54
21728;BME280;11026;50.560;17.852;2023-07-16T12:01:49;99397.38;;;35.77;37.06
21728;BME280;11026;50.560;17.852;2023-07-16T12:04:16;99391.38;;;34.83;39.54
21728;BME280;11026;50.560;17.852;2023-07-16T12:06:44;99396.09;;;35.31;41.41
21728;BME280;11026;50.560;17.852;2023-07-16T12:09:12;99394.88;;;35.87;38.59
21728;BME280;11026;50.560;17.852;2023-07-16T12:11:39;99394.66;;;35.89;39.12
21728;BME280;11026;50.560;17.852;2023-07-16T12:14:07;99396.09;;;35.91;37.45
21728;BME280;11026;50.560;17.852;2023-07-16T12:16:34;99387.66;;;35.63;38.79
21728;BME280;11026;50.560;17.852;2023-07-16T12:19:02;99388.66;;;35.02;39.50
21728;BME280;11026;50.560;17.852;2023-07-16T12:21:29;99395.72;;;34.47;39.24
21728;BME280;11026;50.560;17.852;2023-07-16T12:23:59;99396.09;;;34.58;40.36
21728;BME280;11026;50.560;17.852;2023-07-16T12:26:27;99399.06;;;34.31;39.79
21728;BME280;11026;50.560;17.852;2023-07-16T12:28:55;99395.84;;;34.09;41.21
21728;BME280;11026;50.560;17.852;2023-07-16T12:31:22;99395.34;;;34.44;40.00
21728;BME280;11026;50.560;17.852;2023-07-16T12:33:51;99388.00;;;34.63;39.32
21728;BME280;11026;50.560;17.852;2023-07-16T12:36:20;99396.16;;;34.44;40.11
21728;BME280;11026;50.560;17.852;2023-07-16T12:38:48;99395.47;;;34.56;40.27
21728;BME280;11026;50.560;17.852;2023-07-16T12:41:16;99391.09;;;35.10;37.91
21728;BME280;11026;50.560;17.852;2023-07-16T12:43:50;99393.44;;;34.69;39.95
21728;BME280;11026;50.560;17.852;2023-07-16T12:46:17;99389.53;;;34.09;41.00
21728;BME280;11026;50.560;17.852;2023-07-16T12:48:46;99384.06;;;34.77;39.10
21728;BME280;11026;50.560;17.852;2023-07-16T12:51:14;99392.19;;;34.40;40.68
21728;BME280;11026;50.560;17.852;2023-07-16T12:53:41;99383.25;;;34.26;40.61
21728;BME280;11026;50.560;17.852;2023-07-16T12:56:16;99388.91;;;33.75;42.88
21728;BME280;11026;50.560;17.852;2023-07-16T12:58:44;99391.06;;;33.28;41.80
21728;BME280;11026;50.560;17.852;2023-07-16T13:01:12;99387.97;;;33.56;42.18
21728;BME280;11026;50.560;17.852;2023-07-16T13:03:40;99384.13;;;33.64;42.30
21728;BME280;11026;50.560;17.852;2023-07-16T13:06:07;99386.00;;;33.70;43.90